Time;durP1;ratioP1;P1;durP2;ratioP2;P2;SDS_P1;SDS_P2;PMS_P1;PMS_P2;Temp;Humidity;BMP_temperature;BMP_pressure;BME280_temperature;BME280_humidity;BME280_pressure;Samples;Min_cycle;Max_cycle;Signal;HPM_P1;HPM_P2
2023/09/11 01:28:48;;;;;;;;;;;;;;;19.91;67.75;99740.31;1087246;54;19935;-79
2023/09/11 01:29:52;;;;;;;;;;;;;;;19.90;67.87;99733.22;1087295;47;19973;-79
2023/09/11 01:30:57;;;;;;;;;;;;;;;19.91;67.79;99735.72;1087340;47;19956;-79
2023/09/11 01:31:58;;;;;;;;;;;;;;;19.91;68.04;99738.44;1087657;54;19981;-79
2023/09/11 01:33:02;;;;;;;;;;;;;;;19.94;67.76;99739.88;1087681;47;20003;-79
2023/09/11 01:34:03;;;;;;;;;;;;;;;19.94;67.96;99737.16;1087722;47;19950;-80
2023/09/11 01:35:06;;;;;;;;;;;;;;;19.85;68.90;99736.59;1087645;54;19951;-79
2023/09/11 01:36:07;;;;;;;;;;;;;;;19.83;68.62;99729.69;1087653;54;19950;-79
2023/09/11 01:37:10;;;;;;;;;;;;;;;19.87;68.07;99729.06;1088083;39;20469;-80
2023/09/11 01:38:11;;;;;;;;;;;;;;;19.88;68.14;99733.47;1087663;47;19966;-79
2023/09/11 01:39:15;;;;;;;;;;;;;;;19.89;67.91;99731.56;1087769;54;19950;-79
2023/09/11 01:40:16;;;;;;;;;;;;;;;19.84;68.27;99728.63;1087616;54;19943;-79
2023/09/11 01:41:17;;;;;;;;;;;;;;;19.88;67.52;99729.91;1087637;47;19942;-79
2023/09/11 01:42:23;;;;;;;;;;;;;;;19.90;67.60;99723.19;1087884;54;19991;-79
2023/09/11 01:43:26;;;;;;;;;;;;;;;19.93;67.54;99727.38;1087800;54;19998;-79
2023/09/11 01:44:32;;;;;;;;;;;;;;;19.96;67.41;99726.94;1087773;47;19951;-79
2023/09/11 01:45:36;;;;;;;;;;;;;;;19.99;67.33;99725.66;1087761;54;19942;-79
2023/09/11 01:46:36;;;;;;;;;;;;;;;19.99;67.53;99729.22;1087722;47;19965;-79
2023/09/11 01:47:40;;;;;;;;;;;;;;;20.00;67.19;99735.47;1087732;54;19967;-78
2023/09/11 01:48:42;;;;;;;;;;;;;;;19.94;67.78;99729.88;1087491;54;19942;-80
2023/09/11 01:49:45;;;;;;;;;;;;;;;19.92;68.10;99731.16;1087278;54;19943;-79
2023/09/11 01:50:47;;;;;;;;;;;;;;;19.95;68.04;99738.84;1087351;47;19950;-78
2023/09/11 01:51:51;;;;;;;;;;;;;;;19.93;67.67;99730.09;1087386;54;19958;-79
2023/09/11 01:52:52;;;;;;;;;;;;;;;19.83;68.21;99733.22;1087346;54;19954;-79
2023/09/11 01:53:55;;;;;;;;;;;;;;;19.84;67.92;99740.31;1087357;46;19954;-79
2023/09/11 01:54:57;;;;;;;;;;;;;;;19.84;67.63;99739.50;1087309;47;19962;-79
2023/09/11 01:56:00;;;;;;;;;;;;;;;19.82;67.65;99742.41;1087172;54;19951;-78
2023/09/11 01:57:01;;;;;;;;;;;;;;;19.81;68.29;99746.16;1087220;46;19973;-78
2023/09/11 01:58:04;;;;;;;;;;;;;;;19.68;68.89;99736.16;1087401;54;19967;-79
2023/09/11 01:59:05;;;;;;;;;;;;;;;19.55;69.31;99730.78;1087300;46;19982;-79
2023/09/11 02:00:11;;;;;;;;;;;;;;;19.58;68.95;99739.34;1087613;47;19942;-79
2023/09/11 02:01:15;;;;;;;;;;;;;;;19.63;68.74;99741.41;1087581;54;19970;-79
2023/09/11 02:02:18;;;;;;;;;;;;;;;19.65;68.09;99747.44;1087649;54;19965;-78
2023/09/11 02:03:19;;;;;;;;;;;;;;;19.67;68.25;99739.94;1087309;54;19996;-78
2023/09/11 02:04:22;;;;;;;;;;;;;;;19.68;68.05;99748.91;1087875;47;19966;-79
2023/09/11 02:05:23;;;;;;;;;;;;;;;19.69;67.97;99743.25;1087614;47;19950;-79
2023/09/11 02:06:23;;;;;;;;;;;;;;;19.69;68.02;99743.25;1087695;54;19957;-79
2023/09/11 02:07:27;;;;;;;;;;;;;;;19.64;68.60;99737.66;1087508;47;19949;-79
2023/09/11 02:08:27;;;;;;;;;;;;;;;19.68;67.91;99743.50;1087719;54;19942;-79
2023/09/11 02:09:30;;;;;;;;;;;;;;;19.67;68.06;99741.81;1087714;54;19942;-80
2023/09/11 02:10:31;;;;;;;;;;;;;;;19.62;67.97;99737.03;1087595;54;19966;-80
2023/09/11 02:11:34;;;;;;;;;;;;;;;19.54;68.69;99739.97;1087768;54;19943;-78
2023/09/11 02:12:38;;;;;;;;;;;;;;;19.45;69.11;99740.19;1087939;54;19998;-79
2023/09/11 02:13:44;;;;;;;;;;;;;;;19.41;69.07;99751.66;1087846;47;19946;-79
2023/09/11 02:14:45;;;;;;;;;;;;;;;19.37;69.35;99753.13;1087737;47;19954;-79
2023/09/11 02:15:48;;;;;;;;;;;;;;;19.30;70.06;99750.41;1087846;54;19943;-78
2023/09/11 02:16:52;;;;;;;;;;;;;;;19.26;70.17;99746.47;1087896;47;19942;-79
2023/09/11 02:18:01;;;;;;;;;;;;;;;19.19;70.45;99751.88;1087712;47;19949;-79
2023/09/11 02:19:02;;;;;;;;;;;;;;;19.17;70.46;99741.25;1087861;54;19966;-80
2023/09/11 02:20:06;;;;;;;;;;;;;;;19.19;70.23;99743.75;1087798;47;19966;-79
2023/09/11 02:21:07;;;;;;;;;;;;;;;19.26;69.49;99743.75;1087861;46;19942;-80
2023/09/11 02:26:45;;;;;;;;;;;;;;;19.01;71.09;99747.06;1088027;47;19950;-81
2023/09/11 02:28:06;;;;;;;;;;;;;;;19.05;70.78;99748.34;1087843;47;19943;-80
2023/09/11 02:29:39;;;;;;;;;;;;;;;19.01;70.83;99753.34;1087317;54;19949;-81
2023/09/11 02:31:14;;;;;;;;;;;;;;;19.09;70.18;99754.16;1087994;54;19970;-81
2023/09/11 02:37:57;;;;;;;;;;;;;;;19.11;69.55;99742.06;1088069;47;19933;-81
2023/09/11 02:39:25;;;;;;;;;;;;;;;19.11;69.64;99747.50;1087863;47;19942;-80
2023/09/11 02:40:32;;;;;;;;;;;;;;;19.13;69.23;99744.56;1087693;47;19942;-80
2023/09/11 02:41:33;;;;;;;;;;;;;;;19.13;69.65;99739.16;1087550;54;19942;-80
2023/09/11 02:42:39;;;;;;;;;;;;;;;19.13;69.73;99749.97;1087897;47;20002;-80
2023/09/11 02:43:40;;;;;;;;;;;;;;;19.15;69.55;99739.78;1087893;47;19965;-80
2023/09/11 02:44:46;;;;;;;;;;;;;;;19.15;69.40;99742.50;1087902;54;19943;-81
2023/09/11 02:45:48;;;;;;;;;;;;;;;19.13;69.51;99740.00;1087745;47;19943;-80
2023/09/11 02:47:09;;;;;;;;;;;;;;;19.13;69.67;99745.41;1087782;46;19939;-81
2023/09/11 02:48:27;;;;;;;;;;;;;;;19.12;69.73;99738.31;1087788;47;19955;-79
2023/09/11 02:49:40;;;;;;;;;;;;;;;19.10;69.68;99740.41;1087997;54;19949;-81
2023/09/11 02:50:42;;;;;;;;;;;;;;;19.08;70.15;99745.19;1087689;47;19966;-80
2023/09/11 02:51:55;;;;;;;;;;;;;;;19.03;70.21;99745.00;1087664;47;19954;-80
2023/09/11 02:52:56;;;;;;;;;;;;;;;18.97;70.42;99745.84;1087804;54;19943;-79
2023/09/11 02:53:59;;;;;;;;;;;;;;;18.93;70.35;99748.13;1087850;54;19943;-82
2023/09/11 02:55:03;;;;;;;;;;;;;;;18.89;70.63;99743.31;1087778;54;19943;-79
2023/09/11 02:56:08;;;;;;;;;;;;;;;18.89;70.55;99743.31;1087656;47;19950;-80
2023/09/11 02:57:15;;;;;;;;;;;;;;;18.86;70.53;99742.66;1088009;47;19942;-80
2023/09/11 02:58:19;;;;;;;;;;;;;;;18.92;70.57;99748.28;1087917;54;19954;-80
2023/09/11 02:59:24;;;;;;;;;;;;;;;18.92;70.50;99745.56;1087680;47;19942;-79
2023/09/11 03:00:42;;;;;;;;;;;;;;;18.88;70.64;99742.44;1087891;54;19950;-81
2023/09/11 03:12:45;;;;;;;;;;;;;;;18.52;71.76;99744.47;1087759;47;19942;-80
2023/09/11 03:14:31;;;;;;;;;;;;;;;18.53;71.85;99746.13;1088027;47;19951;-80
2023/09/11 03:22:22;;;;;;;;;;;;;;;18.39;72.44;99747.97;1088053;47;20802;-81
2023/09/11 03:23:51;;;;;;;;;;;;;;;18.36;72.86;99745.69;1087867;54;19945;-80
2023/09/11 03:25:21;;;;;;;;;;;;;;;18.29;73.02;99744.00;1087909;54;19949;-81
2023/09/11 03:26:38;;;;;;;;;;;;;;;18.27;72.75;99738.78;1087794;47;19954;-80
2023/09/11 03:29:27;;;;;;;;;;;;;;;18.19;73.48;99733.53;1087794;47;19957;-80
2023/09/11 03:30:38;;;;;;;;;;;;;;;18.17;73.24;99736.44;1087888;54;19942;-79
2023/09/11 03:31:41;;;;;;;;;;;;;;;18.15;73.27;99733.09;1087854;54;19998;-80
2023/09/11 03:32:42;;;;;;;;;;;;;;;18.15;73.51;99735.00;1087806;47;19950;-80
2023/09/11 03:33:46;;;;;;;;;;;;;;;18.09;73.87;99737.44;1087702;54;19973;-79
2023/09/11 03:35:15;;;;;;;;;;;;;;;18.13;73.80;99731.66;1087954;54;19966;-80
2023/09/11 03:38:05;;;;;;;;;;;;;;;18.13;73.62;99734.34;1087930;47;19935;-80
2023/09/11 03:40:57;;;;;;;;;;;;;;;;;;;;;
2023/09/11 03:44:20;;;;;;;;;;;;;;;18.05;73.61;99728.09;1087928;47;19942;-80
2023/09/11 03:47:13;;;;;;;;;;;;;;;18.07;73.66;99725.16;1087954;47;19935;-80
2023/09/11 03:48:18;;;;;;;;;;;;;;;18.04;73.99;99731.00;1087835;54;19954;-81
2023/09/11 03:49:23;;;;;;;;;;;;;;;18.03;73.86;99730.16;1087808;47;19951;-79
2023/09/11 03:50:24;;;;;;;;;;;;;;;18.01;73.96;99732.22;1087781;54;19946;-79
2023/09/11 03:51:32;;;;;;;;;;;;;;;18.05;74.04;99733.50;1087667;47;19958;-79
2023/09/11 03:52:35;;;;;;;;;;;;;;;18.07;73.93;99731.44;1087758;54;19943;-79
2023/09/11 03:53:42;;;;;;;;;;;;;;;18.07;73.83;99727.88;1087698;47;19946;-80
2023/09/11 03:54:43;;;;;;;;;;;;;;;18.08;73.77;99729.56;1087694;51;19961;-80
2023/09/11 03:55:46;;;;;;;;;;;;;;;18.08;73.53;99725.00;1087665;54;20029;-79
2023/09/11 03:56:48;;;;;;;;;;;;;;;18.08;73.73;99727.69;1087778;54;19973;-80
2023/09/11 03:57:55;;;;;;;;;;;;;;;18.11;73.44;99731.00;1087605;47;19966;-80
2023/09/11 03:58:56;;;;;;;;;;;;;;;18.13;73.33;99726.25;1089105;39;20580;-80
2023/09/11 05:17:07;;;;;;;;;;;;;;;17.25;77.06;99760.84;1087585;54;19943;-80
2023/09/11 05:18:14;;;;;;;;;;;;;;;17.21;77.60;99748.75;1088002;47;19949;-80
2023/09/11 05:20:00;;;;;;;;;;;;;;;;;;;;;
2023/09/11 05:27:44;;;;;;;;;;;;;;;17.23;77.48;99757.50;1088059;47;19927;-80
2023/09/11 05:28:49;;;;;;;;;;;;;;;17.30;76.97;99758.38;1087970;46;19943;-81
2023/09/11 05:29:53;;;;;;;;;;;;;;;17.31;76.89;99754.66;1091235;39;20173;-80
2023/09/11 05:31:34;;;;;;;;;;;;;;;17.30;77.03;99757.56;1088362;47;19938;-83
2023/09/11 07:07:08;;;;;;;;;;;;;;;19.55;68.80;99763.31;1086788;54;19943;-79
2023/09/11 07:19:36;;;;;;;;;;;;;;;19.87;67.61;99755.34;1087006;54;19986;-80
2023/09/11 07:20:36;;;;;;;;;;;;;;;19.90;67.52;99761.19;1087797;47;20615;-79
2023/09/11 07:21:38;;;;;;;;;;;;;;;19.98;67.63;99759.28;1087417;54;19955;-81
2023/09/11 07:22:44;;;;;;;;;;;;;;;19.92;67.52;99761.81;1086509;54;20034;-81
2023/09/11 07:23:45;;;;;;;;;;;;;;;20.01;67.66;99756.97;1086645;47;19938;-81
2023/09/11 07:38:44;;;;;;;;;;;;;;;20.91;64.82;99752.56;1086184;54;19966;-78
2023/09/11 07:39:45;;;;;;;;;;;;;;;20.99;64.84;99755.00;1086628;54;19942;-79
2023/09/11 07:40:48;;;;;;;;;;;;;;;21.09;64.28;99750.97;1086925;47;19974;-79
2023/09/11 07:41:49;;;;;;;;;;;;;;;21.15;64.22;99745.47;1087142;54;19959;-79
2023/09/11 07:42:54;;;;;;;;;;;;;;;21.26;64.26;99752.06;1086818;47;19957;-78
2023/09/11 07:43:54;;;;;;;;;;;;;;;21.31;63.45;99746.81;1086571;54;19943;-78
2023/09/11 07:44:59;;;;;;;;;;;;;;;21.32;63.42;99751.19;1085529;47;20049;-80
2023/09/11 07:46:00;;;;;;;;;;;;;;;21.34;63.27;99749.09;1086392;47;19938;-80
2023/09/11 07:47:03;;;;;;;;;;;;;;;21.34;63.31;99753.69;1086061;54;19969;-79
2023/09/11 07:48:04;;;;;;;;;;;;;;;21.37;63.50;99752.41;1086195;54;19973;-80
2023/09/11 07:49:07;;;;;;;;;;;;;;;21.41;63.16;99756.34;1085933;54;19951;-79
2023/09/11 07:50:08;;;;;;;;;;;;;;;21.60;63.02;99762.66;1085375;47;19951;-77
2023/09/11 07:51:12;;;;;;;;;;;;;;;21.74;62.69;99760.63;1083166;54;19946;-79
2023/09/11 07:52:12;;;;;;;;;;;;;;;21.88;62.50;99754.00;1083505;47;20034;-78
2023/09/11 07:53:15;;;;;;;;;;;;;;;22.03;62.02;99758.22;1083413;46;19973;-79
2023/09/11 07:54:21;;;;;;;;;;;;;;;22.19;61.60;99752.19;1083400;54;19987;-79
2023/09/11 07:55:24;;;;;;;;;;;;;;;22.31;60.56;99748.66;1083213;47;20007;-78
2023/09/11 07:56:25;;;;;;;;;;;;;;;22.41;60.47;99747.13;1083212;47;19975;-78
2023/09/11 07:57:30;;;;;;;;;;;;;;;22.46;60.08;99749.16;1084608;39;20827;-79
2023/09/11 07:58:31;;;;;;;;;;;;;;;22.48;59.63;99752.47;1083872;47;19962;-79
2023/09/11 07:59:34;;;;;;;;;;;;;;;22.54;59.71;99751.53;1084352;47;20073;-80
2023/09/11 08:00:34;;;;;;;;;;;;;;;22.49;59.80;99748.66;1085177;54;19984;-80
2023/09/11 08:01:37;;;;;;;;;;;;;;;22.57;59.84;99751.09;1086706;39;20404;-80
2023/09/11 08:02:38;;;;;;;;;;;;;;;22.82;59.07;99752.81;1086256;54;19965;-80
2023/09/11 08:03:42;;;;;;;;;;;;;;;22.91;58.78;99750.56;1086053;54;19976;-79
2023/09/11 08:04:42;;;;;;;;;;;;;;;23.12;58.55;99751.06;1085592;54;19951;-80
2023/09/11 08:05:46;;;;;;;;;;;;;;;23.34;58.44;99749.47;1085932;54;20088;-80
2023/09/11 08:06:46;;;;;;;;;;;;;;;23.56;57.80;99746.16;1085419;54;19957;-80
2023/09/11 08:07:50;;;;;;;;;;;;;;;23.66;57.24;99746.38;1085324;54;20002;-79
2023/09/11 08:08:51;;;;;;;;;;;;;;;23.84;57.35;99750.88;1084831;54;20057;-80
2023/09/11 08:09:59;;;;;;;;;;;;;;;24.02;55.47;99742.81;1086268;54;19942;-80
2023/09/11 08:11:10;;;;;;;;;;;;;;;24.14;55.65;99741.69;1086208;54;19958;-79
2023/09/11 08:12:13;;;;;;;;;;;;;;;24.15;54.86;99737.06;1083512;54;19950;-78
2023/09/11 08:13:13;;;;;;;;;;;;;;;24.25;54.66;99737.25;1083028;47;19951;-81
2023/09/11 08:14:17;;;;;;;;;;;;;;;24.28;54.61;99742.25;1082868;54;19971;-78
2023/09/11 08:15:17;;;;;;;;;;;;;;;24.33;54.36;99744.25;1082993;54;19950;-78
2023/09/11 08:16:21;;;;;;;;;;;;;;;24.31;54.31;99735.47;1083013;54;19991;-78
2023/09/11 08:17:21;;;;;;;;;;;;;;;24.41;53.96;99735.66;1083738;47;20018;-79
2023/09/11 08:18:25;;;;;;;;;;;;;;;24.50;54.82;99738.00;1083549;47;19954;-79
2023/09/11 08:19:25;;;;;;;;;;;;;;;24.63;54.64;99734.13;1084288;54;19974;-78
2023/09/11 08:20:28;;;;;;;;;;;;;;;24.75;54.41;99737.66;1083999;47;19970;-79
2023/09/11 08:21:29;;;;;;;;;;;;;;;24.97;54.03;99740.50;1083605;47;19970;-79
2023/09/11 08:22:32;;;;;;;;;;;;;;;25.09;53.87;99740.41;1083621;54;20007;-79
2023/09/11 08:23:33;;;;;;;;;;;;;;;25.31;52.56;99737.78;1083366;54;19970;-79
2023/09/11 08:24:36;;;;;;;;;;;;;;;25.45;52.41;99734.72;1084024;39;20510;-81
2023/09/11 08:25:39;;;;;;;;;;;;;;;25.60;52.31;99734.91;1084043;54;19947;-79
2023/09/11 08:26:43;;;;;;;;;;;;;;;25.74;52.18;99734.56;1082737;47;19971;-78
2023/09/11 08:27:44;;;;;;;;;;;;;;;25.96;51.95;99740.91;1081851;47;19946;-79
2023/09/11 08:28:47;;;;;;;;;;;;;;;26.12;51.69;99730.16;1083704;47;19947;-81
2023/09/11 08:29:47;;;;;;;;;;;;;;;26.27;51.09;99734.97;1083862;47;19947;-80
2023/09/11 08:30:51;;;;;;;;;;;;;;;26.35;50.27;99737.25;1083932;47;19994;-79
2023/09/11 08:31:52;;;;;;;;;;;;;;;26.22;49.15;99735.75;1084651;54;19970;-82
2023/09/11 08:32:55;;;;;;;;;;;;;;;26.15;50.27;99737.88;1084493;54;19950;-80
2023/09/11 08:33:55;;;;;;;;;;;;;;;26.41;49.58;99732.66;1084162;54;19971;-79
2023/09/11 08:34:59;;;;;;;;;;;;;;;26.59;48.71;99735.03;1083906;39;20489;-79
2023/09/11 08:35:59;;;;;;;;;;;;;;;26.79;49.25;99733.63;1084420;54;20493;-80
2023/09/11 08:37:03;;;;;;;;;;;;;;;26.85;49.39;99735.31;1084376;54;19958;-79
2023/09/11 08:38:04;;;;;;;;;;;;;;;26.98;49.02;99730.47;1083826;47;19957;-82
2023/09/11 08:39:07;;;;;;;;;;;;;;;26.77;48.58;99730.31;1083594;54;19950;-79
2023/09/11 08:40:08;;;;;;;;;;;;;;;26.79;48.56;99733.63;1083957;54;19946;-80
2023/09/11 08:41:13;;;;;;;;;;;;;;;26.79;48.51;99739.09;1083978;54;20065;-80
2023/09/11 08:42:16;;;;;;;;;;;;;;;26.87;48.05;99737.81;1083655;47;19970;-80
2023/09/11 08:43:17;;;;;;;;;;;;;;;26.94;47.92;99736.47;1083233;47;19951;-80
2023/09/11 08:44:20;;;;;;;;;;;;;;;26.93;47.54;99736.75;1084527;47;19988;-82
2023/09/11 08:45:21;;;;;;;;;;;;;;;26.89;47.72;99736.44;1083778;47;19950;-81
2023/09/11 08:46:25;;;;;;;;;;;;;;;26.92;47.51;99737.84;1082323;39;20334;-80
2023/09/11 08:47:29;;;;;;;;;;;;;;;27.11;47.28;99735.53;1083365;39;20332;-80
2023/09/11 08:48:34;;;;;;;;;;;;;;;27.20;47.24;99730.38;1081892;47;19953;-80
2023/09/11 08:49:37;;;;;;;;;;;;;;;27.45;46.98;99735.25;1082206;54;19951;-80
2023/09/11 08:50:45;;;;;;;;;;;;;;;27.67;46.43;99729.59;1081774;47;20006;-80
2023/09/11 08:51:48;;;;;;;;;;;;;;;27.75;46.15;99724.69;1081938;54;19950;-80
2023/09/11 08:52:49;;;;;;;;;;;;;;;27.53;45.99;99723.78;1083574;47;19953;-80
2023/09/11 08:53:53;;;;;;;;;;;;;;;27.75;45.54;99728.28;1084200;47;19981;-81
2023/09/11 08:54:55;;;;;;;;;;;;;;;27.80;45.61;99722.81;1084090;47;20096;-80
2023/09/11 08:55:59;;;;;;;;;;;;;;;27.67;45.84;99728.78;1084664;54;19950;-82
2023/09/11 08:57:02;;;;;;;;;;;;;;;27.92;45.03;99721.75;1086636;54;19943;-81
2023/09/11 08:58:09;;;;;;;;;;;;;;;27.82;45.05;99723.38;1086178;54;20510;-81
2023/09/11 08:59:11;;;;;;;;;;;;;;;28.08;44.71;99728.19;1084415;54;19973;-80
2023/09/11 09:00:17;;;;;;;;;;;;;;;28.13;44.50;99718.03;1086324;54;19954;-81
2023/09/11 09:01:19;;;;;;;;;;;;;;;28.20;44.41;99719.69;1084370;46;20456;-81
2023/09/11 09:02:23;;;;;;;;;;;;;;;28.29;44.26;99720.81;1085211;54;19955;-80
2023/09/11 09:03:24;;;;;;;;;;;;;;;28.49;43.42;99715.38;1086113;46;19946;-80
2023/09/11 09:04:37;;;;;;;;;;;;;;;28.31;43.50;99716.69;1085612;54;19986;-80
2023/09/11 09:05:39;;;;;;;;;;;;;;;28.15;44.04;99710.31;1085418;46;19957;-81
2023/09/11 09:06:42;;;;;;;;;;;;;;;28.39;43.51;99709.00;1085568;46;19947;-80
2023/09/11 09:07:45;;;;;;;;;;;;;;;28.55;44.20;99712.63;1084578;54;20753;-80
2023/09/11 09:08:49;;;;;;;;;;;;;;;28.55;43.98;99712.63;1085257;54;19947;-81
2023/09/11 09:09:50;;;;;;;;;;;;;;;28.55;43.37;99712.63;1086287;54;19943;-80
2023/09/11 09:10:53;;;;;;;;;;;;;;;28.42;42.50;99712.06;1086121;47;19951;-79
2023/09/11 09:11:54;;;;;;;;;;;;;;;28.76;42.97;99711.56;1085398;54;20062;-81
2023/09/11 09:12:57;;;;;;;;;;;;;;;28.52;42.60;99714.00;1086157;47;19981;-81
2023/09/11 09:14:00;;;;;;;;;;;;;;;28.64;42.91;99716.47;1086759;47;19957;-84
2023/09/11 09:15:03;;;;;;;;;;;;;;;28.65;43.02;99707.13;1085527;47;19946;-80
2023/09/11 09:16:06;;;;;;;;;;;;;;;28.56;42.80;99715.13;1087529;54;19970;-82
2023/09/11 09:17:07;;;;;;;;;;;;;;;28.56;42.81;99708.78;1087838;54;20029;-81
2023/09/11 09:18:11;;;;;;;;;;;;;;;28.82;42.46;99706.91;1087376;47;20025;-80
2023/09/11 09:19:11;;;;;;;;;;;;;;;28.83;42.07;99702.22;1087758;47;19973;-80
2023/09/11 09:20:16;;;;;;;;;;;;;;;28.78;42.48;99695.63;1087763;47;19950;-81
2023/09/11 09:21:16;;;;;;;;;;;;;;;28.45;42.02;99703.25;1087892;47;19958;-84
2023/09/11 09:22:20;;;;;;;;;;;;;;;28.25;42.46;99700.47;1088107;54;20027;-81
2023/09/11 09:23:30;;;;;;;;;;;;;;;28.14;42.79;99705.97;1087959;47;20011;-83
2023/09/11 09:24:56;;;;;;;;;;;;;;;28.02;42.91;99692.41;1087573;47;19950;-82
2023/09/11 09:26:02;;;;;;;;;;;;;;;27.91;43.02;99698.13;1088045;54;19943;-81
2023/09/11 09:27:04;;;;;;;;;;;;;;;28.00;43.01;99696.53;1087629;47;19943;-81
2023/09/11 09:28:10;;;;;;;;;;;;;;;28.29;42.63;99696.09;1087258;54;19950;-81
2023/09/11 09:29:11;;;;;;;;;;;;;;;28.41;42.55;99695.84;1087291;47;19943;-82
2023/09/11 09:30:20;;;;;;;;;;;;;;;28.36;42.01;99699.41;1086191;54;19950;-81
2023/09/11 09:31:21;;;;;;;;;;;;;;;28.43;41.84;99701.88;1083553;54;19947;-81
2023/09/11 09:32:25;;;;;;;;;;;;;;;28.64;41.16;99697.22;1082413;54;19951;-80
2023/09/11 09:33:25;;;;;;;;;;;;;;;28.66;41.21;99700.53;1083150;47;19951;-81
2023/09/11 09:34:29;;;;;;;;;;;;;;;28.60;41.84;99699.72;1084373;47;19946;-82
2023/09/11 09:35:30;;;;;;;;;;;;;;;28.90;41.50;99700.84;1085374;54;19973;-80
2023/09/11 09:37:10;;;;;;;;;;;;;;;;;;;;;
2023/09/11 09:38:15;;;;;;;;;;;;;;;28.68;41.15;99695.59;1086446;54;19950;-81
2023/09/11 09:39:18;;;;;;;;;;;;;;;28.95;40.60;99689.84;1085675;47;20548;-81
2023/09/11 09:40:32;;;;;;;;;;;;;;;28.84;40.75;99695.63;1084393;54;19972;-81
2023/09/11 09:41:36;;;;;;;;;;;;;;;29.16;39.79;99689.00;1084625;47;19955;-80
2023/09/11 09:42:40;;;;;;;;;;;;;;;28.71;40.94;99684.09;1084578;47;19974;-82
2023/09/11 09:43:53;;;;;;;;;;;;;;;28.49;41.07;99687.03;1084949;54;19946;-80
2023/09/11 09:44:55;;;;;;;;;;;;;;;28.55;40.96;99685.13;1085069;46;19952;-80
2023/09/11 09:45:59;;;;;;;;;;;;;;;28.64;40.90;99678.81;1085237;54;19950;-82
2023/09/11 09:47:05;;;;;;;;;;;;;;;28.86;40.79;99682.44;1086756;54;19950;-83
2023/09/11 09:48:07;;;;;;;;;;;;;;;29.19;40.63;99680.22;1085957;54;19951;-80
2023/09/11 09:49:12;;;;;;;;;;;;;;;29.47;39.91;99677.97;1086896;47;19942;-81
2023/09/11 09:50:12;;;;;;;;;;;;;;;29.84;39.34;99682.22;1087195;47;19950;-79
2023/09/11 09:51:16;;;;;;;;;;;;;;;30.07;39.15;99682.69;1085367;54;20427;-81
2023/09/11 09:52:18;;;;;;;;;;;;;;;30.11;38.77;99676.31;1084864;39;20351;-81
2023/09/11 09:53:22;;;;;;;;;;;;;;;30.31;38.64;99671.78;1084265;47;19950;-80
2023/09/11 09:54:42;;;;;;;;;;;;;;;30.33;38.74;99670.41;1083240;47;20002;-80
2023/09/11 09:55:42;;;;;;;;;;;;;;;30.59;38.28;99667.50;1083899;47;20738;-81
2023/09/11 09:56:46;;;;;;;;;;;;;;;30.84;37.92;99671.16;1084520;47;19989;-80
2023/09/11 09:57:46;;;;;;;;;;;;;;;30.99;37.81;99672.09;1086504;47;19957;-83
2023/09/11 09:58:52;;;;;;;;;;;;;;;31.17;37.32;99663.16;1086397;54;19957;-83
2023/09/11 09:59:54;;;;;;;;;;;;;;;31.38;37.31;99668.44;1085719;47;19973;-80
2023/09/11 10:00:59;;;;;;;;;;;;;;;31.33;37.18;99671.25;1085265;54;20389;-82
2023/09/11 10:02:02;;;;;;;;;;;;;;;31.61;36.49;99663.22;1084068;47;19973;-81
2023/09/11 10:03:03;;;;;;;;;;;;;;;31.76;35.95;99654.75;1083615;54;19951;-81
2023/09/11 10:04:16;;;;;;;;;;;;;;;31.77;35.67;99659.16;1083754;47;19950;-81
2023/09/11 10:05:20;;;;;;;;;;;;;;;31.94;35.73;99660.59;1085181;54;19951;-81
2023/09/11 10:06:26;;;;;;;;;;;;;;;31.66;36.19;99655.69;1085518;54;19954;-82
2023/09/11 10:07:37;;;;;;;;;;;;;;;31.93;35.97;99656.22;1086258;47;19957;-82
2023/09/11 10:08:40;;;;;;;;;;;;;;;31.96;35.77;99648.16;1085357;47;19958;-82
2023/09/11 10:09:41;;;;;;;;;;;;;;;31.73;36.07;99647.88;1085524;47;19955;-81
2023/09/11 10:10:42;;;;;;;;;;;;;;;31.77;35.48;99650.06;1084492;47;19951;-81
2023/09/11 10:11:45;;;;;;;;;;;;;;;32.09;35.41;99654.03;1083685;54;20053;-82
2023/09/11 10:12:46;;;;;;;;;;;;;;;32.29;35.45;99647.44;1085546;54;19950;-82
2023/09/11 10:13:51;;;;;;;;;;;;;;;32.58;35.00;99647.22;1085567;46;19950;-81
2023/09/11 10:14:53;;;;;;;;;;;;;;;32.65;35.06;99646.84;1084518;47;19977;-81
2023/09/11 10:15:59;;;;;;;;;;;;;;;32.64;34.92;99648.78;1084593;54;19957;-81
2023/09/11 10:17:00;;;;;;;;;;;;;;;32.64;34.50;99648.78;1085037;54;20042;-82
2023/09/11 10:18:05;;;;;;;;;;;;;;;32.27;34.31;99644.13;1084728;47;19981;-81
2023/09/11 10:19:05;;;;;;;;;;;;;;;32.23;34.66;99640.28;1084786;47;19968;-81
2023/09/11 10:20:08;;;;;;;;;;;;;;;32.61;34.54;99637.50;1083901;54;19946;-81
2023/09/11 10:21:11;;;;;;;;;;;;;;;32.75;34.33;99632.84;1083339;54;19997;-81
2023/09/11 10:22:12;;;;;;;;;;;;;;;32.69;34.27;99633.22;1082801;54;19958;-81
2023/09/11 10:23:15;;;;;;;;;;;;;;;32.76;34.49;99633.66;1084431;54;19950;-80
2023/09/11 10:24:17;;;;;;;;;;;;;;;32.62;34.61;99633.59;1084250;47;19954;-80
2023/09/11 10:25:19;;;;;;;;;;;;;;;32.87;33.67;99634.34;1085215;54;19951;-82
2023/09/11 10:26:25;;;;;;;;;;;;;;;33.07;33.70;99628.41;1085582;47;20003;-82
2023/09/11 10:27:26;;;;;;;;;;;;;;;32.85;33.90;99631.03;1085988;54;19955;-81
2023/09/11 10:28:31;;;;;;;;;;;;;;;32.67;34.24;99628.81;1084604;47;19950;-81
2023/09/11 10:29:40;;;;;;;;;;;;;;;32.77;33.36;99632.53;1084382;46;19946;-81
2023/09/11 10:30:48;;;;;;;;;;;;;;;33.01;32.95;99632.41;1083544;47;19980;-81
2023/09/11 10:31:52;;;;;;;;;;;;;;;33.10;33.09;99627.78;1083556;47;19969;-81
2023/09/11 10:33:00;;;;;;;;;;;;;;;33.28;32.71;99623.31;1083440;47;19969;-81
2023/09/11 10:34:01;;;;;;;;;;;;;;;33.21;32.54;99619.28;1084223;54;19947;-82
2023/09/11 10:35:06;;;;;;;;;;;;;;;33.02;32.68;99619.38;1083682;54;20711;-80
2023/09/11 10:36:10;;;;;;;;;;;;;;;32.69;32.95;99622.16;1082085;47;19998;-80
2023/09/11 10:37:13;;;;;;;;;;;;;;;33.01;33.14;99615.78;1083350;47;19953;-81
2023/09/11 10:38:14;;;;;;;;;;;;;;;33.21;32.80;99622.06;1082839;54;20574;-80
2023/09/11 10:39:19;;;;;;;;;;;;;;;33.20;32.71;99623.19;1082842;54;19946;-81
2023/09/11 10:40:20;;;;;;;;;;;;;;;33.20;32.32;99620.41;1084354;47;19959;-82
2023/09/11 10:41:23;;;;;;;;;;;;;;;33.32;32.51;99615.19;1083393;47;19951;-80
2023/09/11 10:42:24;;;;;;;;;;;;;;;33.38;31.78;99621.50;1084974;39;20267;-81
2023/09/11 10:43:28;;;;;;;;;;;;;;;33.45;30.31;99616.34;1083030;54;19953;-81
2023/09/11 10:44:28;;;;;;;;;;;;;;;33.65;31.28;99615.09;1084040;47;19969;-81
2023/09/11 10:45:35;;;;;;;;;;;;;;;33.81;30.80;99617.53;1086485;47;19950;-82
2023/09/11 10:46:38;;;;;;;;;;;;;;;33.76;30.67;99612.94;1087402;54;20322;-82
2023/09/11 10:47:51;;;;;;;;;;;;;;;33.58;30.75;99614.69;1087303;54;19943;-83
2023/09/11 10:48:52;;;;;;;;;;;;;;;33.54;30.77;99608.13;1087159;54;19950;-83
2023/09/11 10:49:59;;;;;;;;;;;;;;;33.35;31.00;99613.78;1086789;54;19942;-83
2023/09/11 10:50:59;;;;;;;;;;;;;;;33.44;30.91;99604.44;1087075;54;19964;-82
2023/09/11 10:52:05;;;;;;;;;;;;;;;33.65;30.46;99609.53;1087478;54;19943;-84
2023/09/11 10:53:07;;;;;;;;;;;;;;;33.76;30.53;99610.16;1087498;54;19964;-84
2023/09/11 10:54:11;;;;;;;;;;;;;;;33.77;30.51;99602.66;1087432;54;19942;-85
2023/09/11 10:55:13;;;;;;;;;;;;;;;33.81;30.53;99604.50;1087016;47;19942;-83
2023/09/11 10:56:17;;;;;;;;;;;;;;;33.99;30.32;99602.75;1087160;54;19946;-82
2023/09/11 10:57:18;;;;;;;;;;;;;;;34.00;30.83;99593.28;1087002;47;19954;-82
2023/09/11 10:58:25;;;;;;;;;;;;;;;33.85;30.70;99601.91;1086824;47;19942;-82
2023/09/11 10:59:26;;;;;;;;;;;;;;;33.62;31.00;99601.88;1087047;54;19946;-82
2023/09/11 11:00:29;;;;;;;;;;;;;;;33.07;31.20;99592.41;1088300;39;20394;-84
2023/09/11 11:01:35;;;;;;;;;;;;;;;32.57;31.77;99598.56;1087031;54;19942;-84
2023/09/11 11:02:38;;;;;;;;;;;;;;;32.31;32.24;99595.38;1087113;47;19942;-83
2023/09/11 11:03:40;;;;;;;;;;;;;;;32.27;32.38;99597.13;1087098;47;19951;-83
2023/09/11 11:04:44;;;;;;;;;;;;;;;32.28;32.29;99593.25;1086911;54;19943;-84
2023/09/11 11:05:44;;;;;;;;;;;;;;;32.04;32.57;99594.13;1087041;54;19943;-83
2023/09/11 11:06:49;;;;;;;;;;;;;;;32.04;32.67;99591.34;1086927;54;19942;-84
2023/09/11 11:07:50;;;;;;;;;;;;;;;31.78;32.86;99593.69;1087088;47;19954;-81